Time,TemperatureF,DewpointF,PressureIn,WindDirection,WindDirectionDegrees,WindSpeedMPH,WindSpeedGustMPH,Humidity,HourlyPrecipIn,Conditions,Clouds,dailyrainin,SolarRadiationWatts/m^2,SoftwareType,DateUTC
2014-03-28 00:02:00,32.0,12.0,-100.00,NE,55,0.0,2.0,44,0.00,,,0.00,0.800000,,2014-03-28 08:02:00,
2014-03-28 00:11:00,32.0,12.0,-100.00,NE,55,0.0,2.0,44,0.00,,,0.00,0.800000,,2014-03-28 08:11:00,
2014-03-28 00:21:00,32.0,12.0,-100.00,NE,55,0.0,2.0,44,0.00,,,0.00,0.800000,,2014-03-28 08:21:00,
2014-03-28 00:52:00,32.0,11.0,-100.00,West,271,2.0,2.0,41,0.00,,,0.00,0.800000,,2014-03-28 08:52:00,
2014-03-28 01:03:00,32.0,11.0,-100.00,West,271,2.0,2.0,41,0.00,,,0.00,0.800000,,2014-03-28 09:03:00,
2014-03-28 01:11:00,32.0,11.0,-100.00,West,271,2.0,2.0,41,0.00,,,0.00,0.800000,,2014-03-28 09:11:00,
2014-03-28 01:21:00,32.0,11.0,-100.00,West,271,2.0,2.0,41,0.00,,,0.00,0.800000,,2014-03-28 09:21:00,
2014-03-28 01:53:00,31.0,12.0,-100.00,North,355,1.0,3.0,44,0.00,,,0.00,0.800000,,2014-03-28 09:53:00,
2014-03-28 02:04:00,31.0,12.0,-100.00,North,355,1.0,3.0,44,0.00,,,0.00,0.800000,,2014-03-28 10:04:00,
2014-03-28 02:12:00,31.0,12.0,-100.00,North,355,1.0,3.0,44,0.00,,,0.00,0.800000,,2014-03-28 10:12:00,
2014-03-28 02:23:00,31.0,12.0,-100.00,North,355,1.0,3.0,44,0.00,,,0.00,0.800000,,2014-03-28 10:23:00,
2014-03-28 02:53:00,31.0,12.0,-100.00,NE,41,2.0,2.0,44,0.00,,,0.00,0.800000,,2014-03-28 10:53:00,
2014-03-28 03:02:00,31.0,12.0,-100.00,NE,41,2.0,2.0,44,0.00,,,0.00,0.800000,,2014-03-28 11:02:00,
2014-03-28 03:12:00,31.0,12.0,-100.00,NE,41,2.0,2.0,44,0.00,,,0.00,0.800000,,2014-03-28 11:12:00,
2014-03-28 03:22:00,31.0,12.0,-100.00,NE,41,2.0,2.0,44,0.00,,,0.00,0.800000,,2014-03-28 11:22:00,
2014-03-28 03:52:00,31.0,12.0,-100.00,SSE,159,2.0,3.0,45,0.00,,,0.00,0.800000,,2014-03-28 11:52:00,
2014-03-28 04:02:00,31.0,12.0,-100.00,SSE,159,2.0,3.0,45,0.00,,,0.00,0.800000,,2014-03-28 12:02:00,
2014-03-28 04:12:00,31.0,12.0,-100.00,SSE,159,2.0,3.0,45,0.00,,,0.00,0.800000,,2014-03-28 12:12:00,
2014-03-28 04:21:00,31.0,12.0,-100.00,SSE,159,2.0,3.0,45,0.00,,,0.00,0.800000,,2014-03-28 12:21:00,
2014-03-28 04:52:00,31.0,13.0,-100.00,West,260,4.0,4.0,47,0.00,,,0.00,0.800000,,2014-03-28 12:52:00,
2014-03-28 05:02:00,31.0,13.0,-100.00,West,260,4.0,4.0,47,0.00,,,0.00,0.800000,,2014-03-28 13:02:00,
2014-03-28 05:11:00,31.0,13.0,-100.00,West,260,4.0,4.0,47,0.00,,,0.00,0.800000,,2014-03-28 13:11:00,
2014-03-28 05:22:00,31.0,13.0,-100.00,West,260,4.0,4.0,47,0.00,,,0.00,0.800000,,2014-03-28 13:22:00,
2014-03-28 05:52:00,30.0,12.0,-100.00,East,86,2.0,4.0,47,0.00,,,0.00,0.800000,,2014-03-28 13:52:00,
2014-03-28 06:02:00,30.0,12.0,-100.00,East,86,2.0,4.0,47,0.00,,,0.00,0.800000,,2014-03-28 14:02:00,
2014-03-28 06:12:00,30.0,12.0,-100.00,East,86,2.0,4.0,47,0.00,,,0.00,0.800000,,2014-03-28 14:12:00,
2014-03-28 06:21:00,30.0,12.0,-100.00,East,86,2.0,4.0,47,0.00,,,0.00,0.800000,,2014-03-28 14:21:00,
2014-03-28 06:52:00,30.0,12.0,-100.00,North,353,2.0,4.0,47,0.00,,,-99.99,0.800000,,2014-03-28 14:52:00,
2014-03-28 07:02:00,30.0,12.0,-100.00,North,353,2.0,4.0,47,0.00,,,-99.99,0.800000,,2014-03-28 15:02:00,
2014-03-28 07:12:00,30.0,12.0,-100.00,North,353,2.0,4.0,47,0.00,,,-99.99,0.800000,,2014-03-28 15:12:00,
2014-03-28 07:54:00,29.0,11.0,-100.00,NE,37,1.0,3.0,46,0.00,,,0.00,1.200000,,2014-03-28 15:54:00,
2014-03-28 08:03:00,29.0,11.0,-100.00,NE,37,1.0,3.0,46,0.00,,,0.00,1.200000,,2014-03-28 16:03:00,
2014-03-28 08:13:00,29.0,11.0,-100.00,NE,37,1.0,3.0,46,0.00,,,0.00,1.200000,,2014-03-28 16:13:00,
2014-03-28 09:12:00,31.0,12.0,-100.00,North,-999,0.0,2.0,45,0.00,,,0.00,23.799999,,2014-03-28 17:12:00,
2014-03-28 10:52:00,37.0,13.0,-100.00,NNW,329,2.0,5.0,37,0.00,,,0.00,317.700012,,2014-03-28 18:52:00,
2014-03-28 11:02:00,37.0,13.0,-100.00,NNW,329,2.0,5.0,37,0.00,,,0.00,317.700012,,2014-03-28 19:02:00,
2014-03-28 11:11:00,37.0,13.0,-100.00,NNW,329,2.0,5.0,37,0.00,,,0.00,317.700012,,2014-03-28 19:11:00,
2014-03-28 11:21:00,37.0,13.0,-100.00,NNW,329,2.0,5.0,37,0.00,,,0.00,317.700012,,2014-03-28 19:21:00,
2014-03-28 11:52:00,40.0,16.0,-100.00,North,7,1.0,6.0,38,0.00,,,0.00,446.000000,,2014-03-28 19:52:00,
2014-03-28 12:02:00,40.0,16.0,-100.00,North,7,1.0,6.0,38,0.00,,,0.00,446.000000,,2014-03-28 20:02:00,
2014-03-28 12:12:00,40.0,16.0,-100.00,North,7,1.0,6.0,38,0.00,,,0.00,446.000000,,2014-03-28 20:12:00,
2014-03-28 12:22:00,40.0,16.0,-100.00,North,7,1.0,6.0,38,0.00,,,0.00,446.000000,,2014-03-28 20:22:00,
2014-03-28 12:52:00,38.0,15.0,-100.00,North,5,4.0,4.0,38,0.00,,,0.00,545.299988,,2014-03-28 20:52:00,
2014-03-28 13:01:00,38.0,15.0,-100.00,North,5,4.0,4.0,38,0.00,,,0.00,545.299988,,2014-03-28 21:01:00,
2014-03-28 13:11:00,38.0,15.0,-100.00,North,5,4.0,4.0,38,0.00,,,0.00,545.299988,,2014-03-28 21:11:00,
2014-03-28 13:21:00,38.0,15.0,-100.00,North,5,4.0,4.0,38,0.00,,,0.00,545.299988,,2014-03-28 21:21:00,
2014-03-28 13:53:00,43.0,19.0,-100.00,WSW,256,2.0,5.0,37,0.00,,,0.00,605.099976,,2014-03-28 21:53:00,
2014-03-28 14:03:00,43.0,19.0,-100.00,WSW,256,2.0,5.0,37,0.00,,,0.00,605.099976,,2014-03-28 22:03:00,
2014-03-28 14:12:00,43.0,19.0,-100.00,WSW,256,2.0,5.0,37,0.00,,,0.00,605.099976,,2014-03-28 22:12:00,
2014-03-28 14:23:00,43.0,19.0,-100.00,WSW,256,2.0,5.0,37,0.00,,,0.00,605.099976,,2014-03-28 22:23:00,
2014-03-28 14:53:00,45.0,21.0,-100.00,SW,235,2.0,4.0,38,0.00,,,0.00,621.799988,,2014-03-28 22:53:00,
2014-03-28 15:03:00,45.0,21.0,-100.00,SW,235,2.0,4.0,38,0.00,,,0.00,621.799988,,2014-03-28 23:03:00,
2014-03-28 15:12:00,45.0,21.0,-100.00,SW,235,2.0,4.0,38,0.00,,,0.00,621.799988,,2014-03-28 23:12:00,
2014-03-28 15:22:00,45.0,21.0,-100.00,SW,235,2.0,4.0,38,0.00,,,0.00,621.799988,,2014-03-28 23:22:00,
2014-03-28 15:53:00,41.0,19.0,-100.00,ESE,108,4.0,6.0,40,0.00,,,0.00,592.799988,,2014-03-28 23:53:00,
2014-03-28 16:02:00,41.0,19.0,-100.00,ESE,108,4.0,6.0,40,0.00,,,0.00,592.799988,,2014-03-29 00:02:00,
2014-03-28 16:12:00,41.0,19.0,-100.00,ESE,108,4.0,6.0,40,0.00,,,0.00,592.799988,,2014-03-29 00:12:00,
2014-03-28 16:22:00,41.0,19.0,-100.00,ESE,108,4.0,6.0,40,0.00,,,0.00,592.799988,,2014-03-29 00:22:00,
2014-03-28 16:52:00,45.0,17.0,-100.00,SE,144,2.0,6.0,33,0.00,,,0.00,524.200012,,2014-03-29 00:52:00,
2014-03-28 17:01:00,45.0,17.0,-100.00,SE,144,2.0,6.0,33,0.00,,,0.00,524.200012,,2014-03-29 01:01:00,
2014-03-28 17:11:00,45.0,17.0,-100.00,SE,144,2.0,6.0,33,0.00,,,0.00,524.200012,,2014-03-29 01:11:00,
2014-03-28 17:22:00,45.0,17.0,-100.00,SE,144,2.0,6.0,33,0.00,,,0.00,524.200012,,2014-03-29 01:22:00,
2014-03-28 17:52:00,46.0,19.0,-100.00,East,96,1.0,5.0,33,0.00,,,0.00,421.700012,,2014-03-29 01:52:00,
2014-03-28 18:02:00,46.0,19.0,-100.00,East,96,1.0,5.0,33,0.00,,,0.00,421.700012,,2014-03-29 02:02:00,
2014-03-28 18:11:00,46.0,19.0,-100.00,East,96,1.0,5.0,33,0.00,,,0.00,421.700012,,2014-03-29 02:11:00,
2014-03-28 18:22:00,46.0,19.0,-100.00,East,96,1.0,5.0,33,0.00,,,0.00,421.700012,,2014-03-29 02:22:00,
2014-03-28 18:52:00,39.0,18.0,-100.00,West,271,4.0,6.0,43,-99.99,,,0.00,294.799988,,2014-03-29 02:52:00,
2014-03-28 19:02:00,39.0,18.0,-100.00,West,271,4.0,6.0,43,-99.99,,,0.00,294.799988,,2014-03-29 03:02:00,
2014-03-28 19:11:00,39.0,18.0,-100.00,West,271,4.0,6.0,43,-99.99,,,0.00,294.799988,,2014-03-29 03:11:00,
2014-03-28 19:21:00,39.0,18.0,-100.00,West,271,4.0,6.0,43,-99.99,,,0.00,294.799988,,2014-03-29 03:21:00,
2014-03-28 19:54:00,37.0,17.0,-100.00,WSW,244,4.0,6.0,43,0.00,,,0.00,162.300003,,2014-03-29 03:54:00,
2014-03-28 20:03:00,37.0,17.0,-100.00,WSW,244,4.0,6.0,43,0.00,,,0.00,162.300003,,2014-03-29 04:03:00,
2014-03-28 20:12:00,37.0,17.0,-100.00,WSW,244,4.0,6.0,43,0.00,,,0.00,162.300003,,2014-03-29 04:12:00,
2014-03-28 20:23:00,37.0,17.0,-100.00,WSW,244,4.0,6.0,43,0.00,,,0.00,162.300003,,2014-03-29 04:23:00,
2014-03-28 20:53:00,33.0,16.0,-100.00,North,-999,0.0,5.0,50,0.00,,,0.00,31.700001,,2014-03-29 04:53:00,
2014-03-28 21:02:00,33.0,16.0,-100.00,North,-999,0.0,5.0,50,0.00,,,0.00,31.700001,,2014-03-29 05:02:00,
2014-03-28 21:12:00,33.0,16.0,-100.00,North,-999,0.0,5.0,50,0.00,,,0.00,31.700001,,2014-03-29 05:12:00,
2014-03-28 21:22:00,33.0,16.0,-100.00,North,-999,0.0,5.0,50,0.00,,,0.00,31.700001,,2014-03-29 05:22:00,
2014-03-28 21:52:00,33.0,16.0,-100.00,NE,49,2.0,2.0,50,0.00,,,0.00,2.400000,,2014-03-29 05:52:00,
2014-03-28 22:01:00,33.0,16.0,-100.00,NE,49,2.0,2.0,50,0.00,,,0.00,2.400000,,2014-03-29 06:01:00,
2014-03-28 22:12:00,33.0,16.0,-100.00,NE,49,2.0,2.0,50,0.00,,,0.00,2.400000,,2014-03-29 06:12:00,
2014-03-28 22:22:00,33.0,16.0,-100.00,NE,49,2.0,2.0,50,0.00,,,0.00,2.400000,,2014-03-29 06:22:00,
2014-03-28 22:52:00,32.0,16.0,-100.00,ESE,102,2.0,3.0,51,0.00,,,0.00,0.800000,,2014-03-29 06:52:00,
2014-03-28 23:02:00,32.0,16.0,-100.00,ESE,102,2.0,3.0,51,0.00,,,0.00,0.800000,,2014-03-29 07:02:00,
2014-03-28 23:12:00,32.0,16.0,-100.00,ESE,102,2.0,3.0,51,0.00,,,0.00,0.800000,,2014-03-29 07:12:00,
2014-03-28 23:21:00,32.0,16.0,-100.00,ESE,102,2.0,3.0,51,0.00,,,0.00,0.800000,,2014-03-29 07:21:00,
2014-03-28 23:52:00,32.0,15.0,-100.00,WSW,237,2.0,5.0,50,0.00,,,0.00,0.800000,,2014-03-29 07:52:00,